createdAt,value
2022-10-28T00:00:48.366Z,94.33
2022-10-28T00:03:56.341Z,93.80
2022-10-28T00:06:59.891Z,93.70
2022-10-28T00:10:04.260Z,93.84
2022-10-28T00:13:06.832Z,93.41
2022-10-28T00:16:16.102Z,93.62
2022-10-28T00:19:18.682Z,94.11
2022-10-28T00:22:22.933Z,94.19
2022-10-28T00:25:27.149Z,94.28
2022-10-28T00:28:30.100Z,94.23
2022-10-28T00:31:34.635Z,94.24
2022-10-28T00:34:37.857Z,94.67
2022-10-28T00:37:40.466Z,94.83
2022-10-28T00:40:43.402Z,95.38
2022-10-28T00:43:47.642Z,95.23
2022-10-28T00:46:53.519Z,95.06
2022-10-28T00:50:10.129Z,94.79
2022-10-28T00:53:21.185Z,94.76
2022-10-28T00:56:27.865Z,94.52
2022-10-28T00:59:35.397Z,93.94
2022-10-28T01:02:44.675Z,93.70
2022-10-28T01:05:49.592Z,93.75
2022-10-28T01:08:54.850Z,93.74
2022-10-28T01:12:18.392Z,94.55
2022-10-28T01:15:42.739Z,94.27
2022-10-28T01:19:11.444Z,94.70
2022-10-28T01:22:25.748Z,94.29
2022-10-28T01:25:45.783Z,95.26
2022-10-28T01:29:07.023Z,95.36
2022-10-28T01:32:48.553Z,95.72
2022-10-28T01:36:01.622Z,95.59
2022-10-28T01:39:16.083Z,95.52
2022-10-28T01:42:37.802Z,95.01
2022-10-28T01:45:58.279Z,94.69
2022-10-28T01:49:09.410Z,94.62
2022-10-28T01:52:15.110Z,94.37
2022-10-28T01:55:29.379Z,94.05
2022-10-28T01:58:33.944Z,93.60
2022-10-28T02:01:38.625Z,93.73
2022-10-28T02:04:41.707Z,93.52
2022-10-28T02:07:45.041Z,93.57
2022-10-28T02:10:58.864Z,93.82
2022-10-28T02:14:16.144Z,93.26
2022-10-28T02:17:57.547Z,93.17
2022-10-28T02:21:06.195Z,93.58
2022-10-28T02:24:20.445Z,93.98
2022-10-28T02:27:35.329Z,93.54
2022-10-28T02:30:41.200Z,94.02
2022-10-28T02:33:47.799Z,93.64
2022-10-28T02:36:53.863Z,93.61
2022-10-28T02:40:00.196Z,94.11
2022-10-28T02:43:06.689Z,94.59
2022-10-28T02:46:11.614Z,94.45
2022-10-28T02:49:15.629Z,94.19
2022-10-28T02:52:22.149Z,94.36
2022-10-28T02:55:33.478Z,94.06
2022-10-28T02:58:42.631Z,93.20
2022-10-28T03:01:45.592Z,93.09
2022-10-28T03:04:48.469Z,93.05
2022-10-28T03:07:52.673Z,93.22
2022-10-28T03:10:55.510Z,92.83
2022-10-28T03:13:58.507Z,92.62
2022-10-28T03:17:01.199Z,93.73
2022-10-28T03:20:04.419Z,94.05
2022-10-28T03:23:07.044Z,94.02
2022-10-28T03:26:09.935Z,93.58
2022-10-28T03:29:12.499Z,93.23
2022-10-28T03:32:15.384Z,93.27
2022-10-28T03:35:17.938Z,93.08
2022-10-28T03:38:20.962Z,93.04
2022-10-28T03:41:23.834Z,92.94
2022-10-28T03:44:29.053Z,92.95
2022-10-28T03:47:31.676Z,92.63
2022-10-28T03:50:34.789Z,92.35
2022-10-28T03:53:37.395Z,91.73
2022-10-28T03:56:40.727Z,92.01
2022-10-28T03:59:43.413Z,91.99
2022-10-28T04:02:53.395Z,92.91
2022-10-28T04:05:56.453Z,93.36
2022-10-28T04:08:58.997Z,94.31
2022-10-28T04:12:01.995Z,94.40
2022-10-28T04:15:05.002Z,93.47
2022-10-28T04:18:08.091Z,93.26
2022-10-28T04:21:10.734Z,92.74
2022-10-28T04:24:13.636Z,93.03
2022-10-28T04:27:16.208Z,92.76
2022-10-28T04:30:19.260Z,92.97
2022-10-28T04:33:21.940Z,93.53
2022-10-28T04:36:24.923Z,93.60
2022-10-28T04:39:27.584Z,94.34
2022-10-28T04:42:30.511Z,93.89
2022-10-28T04:45:33.138Z,94.19
2022-10-28T04:48:36.301Z,94.37
2022-10-28T04:51:38.898Z,93.98
2022-10-28T04:54:41.833Z,94.06
2022-10-28T04:57:44.453Z,94.12
2022-10-28T05:00:47.393Z,93.65
2022-10-28T05:03:49.971Z,93.64
2022-10-28T05:06:52.791Z,93.17
2022-10-28T05:09:55.470Z,93.30
2022-10-28T05:12:58.388Z,93.03
2022-10-28T05:16:00.983Z,93.25
2022-10-28T05:19:04.119Z,93.65
2022-10-28T05:22:07.928Z,93.36
2022-10-28T05:25:12.025Z,93.95
2022-10-28T05:28:14.689Z,93.75
2022-10-28T05:31:18.367Z,94.41
2022-10-28T05:34:20.924Z,94.08
2022-10-28T05:37:23.770Z,94.48
2022-10-28T05:40:26.544Z,94.83
2022-10-28T05:43:29.435Z,96.21
2022-10-28T05:46:32.166Z,96.86
2022-10-28T05:49:35.049Z,96.50
2022-10-28T05:52:37.751Z,96.54
2022-10-28T05:55:45.141Z,96.60
2022-10-28T06:01:58.019Z,96.97
2022-10-28T06:05:00.967Z,97.11
2022-10-28T06:08:05.698Z,96.96
2022-10-28T06:11:07.131Z,97.20
2022-10-28T06:14:09.808Z,97.43
2022-10-28T06:17:12.717Z,97.39
2022-10-28T06:20:16.883Z,97.36
2022-10-28T06:23:20.056Z,97.56
2022-10-28T06:26:22.649Z,97.23
2022-10-28T06:29:25.632Z,97.00
2022-10-28T06:32:28.255Z,96.56
2022-10-28T06:35:31.216Z,96.17
2022-10-28T06:38:33.766Z,96.79
2022-10-28T06:41:36.618Z,97.14
2022-10-28T06:44:39.207Z,97.24
2022-10-28T06:47:43.599Z,97.28
2022-10-28T06:50:46.181Z,97.12
2022-10-28T06:53:52.955Z,96.69
2022-10-28T06:56:55.916Z,96.67
2022-10-28T06:59:58.786Z,96.60
2022-10-28T07:03:01.595Z,96.51
2022-10-28T07:06:05.212Z,96.35
2022-10-28T07:09:08.279Z,96.08
2022-10-28T07:12:11.280Z,96.01
2022-10-28T07:15:13.920Z,96.55
2022-10-28T07:18:16.762Z,96.58
2022-10-28T07:21:21.949Z,96.79
2022-10-28T07:27:30.240Z,96.40
2022-10-28T07:30:34.942Z,96.11
2022-10-28T07:33:37.554Z,95.65
2022-10-28T07:36:40.647Z,95.60
2022-10-28T07:39:43.312Z,94.96
2022-10-28T07:42:46.155Z,94.61
2022-10-28T07:45:48.903Z,94.70
2022-10-28T07:48:51.810Z,94.64
2022-10-28T07:51:54.525Z,94.23
2022-10-28T07:54:57.931Z,93.42
2022-10-28T07:58:00.635Z,92.79
2022-10-28T08:01:07.075Z,92.51
2022-10-28T08:04:09.996Z,92.52
2022-10-28T08:07:13.884Z,91.79
2022-10-28T08:10:16.873Z,90.42
2022-10-28T08:13:19.518Z,89.71
2022-10-28T08:16:22.577Z,87.71
2022-10-28T08:19:25.210Z,87.67
2022-10-28T08:22:28.160Z,87.70
2022-10-28T08:25:30.747Z,87.16
2022-10-28T08:28:33.890Z,87.30
2022-10-28T08:31:36.547Z,87.60
2022-10-28T08:34:42.681Z,87.03
2022-10-28T08:37:51.812Z,86.23
2022-10-28T08:41:33.483Z,86.75
2022-10-28T08:45:05.058Z,87.95
2022-10-28T08:48:36.721Z,88.06
2022-10-28T08:51:44.949Z,87.08
2022-10-28T08:54:55.520Z,86.05
2022-10-28T08:58:07.089Z,85.63
2022-10-28T09:01:21.532Z,86.28
2022-10-28T09:04:40.319Z,86.48
2022-10-28T09:07:43.396Z,86.71
2022-10-28T09:11:09.101Z,86.12
2022-10-28T09:14:33.621Z,87.51
2022-10-28T09:17:39.162Z,87.44
2022-10-28T09:20:54.904Z,86.65
2022-10-28T09:24:01.087Z,85.74
2022-10-28T09:27:23.194Z,84.68
2022-10-28T09:30:40.978Z,81.21
2022-10-28T09:33:55.857Z,75.95
2022-10-28T09:37:11.292Z,71.47
2022-10-28T09:40:17.500Z,70.15
2022-10-28T09:43:28.754Z,67.82
2022-10-28T09:46:36.216Z,66.95
2022-10-28T09:49:41.203Z,67.26
2022-10-28T09:52:59.401Z,66.42
2022-10-28T09:56:03.866Z,69.56
2022-10-28T09:59:08.037Z,73.36
2022-10-28T10:02:25.556Z,76.21
2022-10-28T10:05:30.557Z,76.57
2022-10-28T10:08:36.511Z,76.34
2022-10-28T10:11:45.145Z,76.89
2022-10-28T10:14:54.540Z,76.66
2022-10-28T10:18:01.012Z,75.24
2022-10-28T10:21:04.057Z,71.60
2022-10-28T10:24:22.858Z,66.82
2022-10-28T10:27:27.898Z,62.42
2022-10-28T10:30:33.810Z,62.00
2022-10-28T10:33:39.649Z,64.21
2022-10-28T10:36:50.214Z,63.01
2022-10-28T10:40:17.909Z,61.92
2022-10-28T10:43:24.445Z,63.71
2022-10-28T10:46:28.299Z,61.73
2022-10-28T10:49:31.386Z,61.49
2022-10-28T10:52:34.083Z,59.71
2022-10-28T10:55:40.353Z,58.26
2022-10-28T10:58:54.499Z,54.96
2022-10-28T11:01:59.665Z,54.70
2022-10-28T11:05:06.415Z,53.25
2022-10-28T11:08:27.668Z,52.02
2022-10-28T11:11:38.696Z,51.13
2022-10-28T11:14:54.862Z,50.66
2022-10-28T11:18:09.663Z,50.33
2022-10-28T11:21:15.543Z,49.60
2022-10-28T11:24:44.830Z,49.81
2022-10-28T11:28:21.840Z,48.49
2022-10-28T11:32:01.789Z,49.23
2022-10-28T11:35:04.842Z,48.84
2022-10-28T11:38:16.142Z,49.26
2022-10-28T11:41:27.942Z,53.32
2022-10-28T11:44:53.440Z,51.55
2022-10-28T11:48:15.102Z,50.84
2022-10-28T11:51:31.378Z,51.47
2022-10-28T11:54:45.195Z,55.77
2022-10-28T11:58:38.454Z,55.13
2022-10-28T12:01:45.834Z,53.90
2022-10-28T12:05:24.928Z,53.09
2022-10-28T12:09:00.062Z,52.84
2022-10-28T12:12:10.200Z,53.80
2022-10-28T12:15:20.461Z,51.04
2022-10-28T12:18:58.691Z,51.47
2022-10-28T12:22:01.287Z,51.67
2022-10-28T12:25:14.712Z,52.69
2022-10-28T12:28:25.532Z,53.63
2022-10-28T12:31:34.137Z,54.33
2022-10-28T12:35:08.037Z,54.75
2022-10-28T12:38:43.405Z,53.27
2022-10-28T12:42:13.105Z,53.86
2022-10-28T12:45:19.362Z,54.54
2022-10-28T12:48:34.022Z,55.55
2022-10-28T12:51:40.598Z,53.48
2022-10-28T12:55:03.964Z,55.15
2022-10-28T12:58:17.134Z,57.05
2022-10-28T13:01:22.562Z,56.36
2022-10-28T13:04:28.901Z,57.05
2022-10-28T13:08:02.352Z,58.57
2022-10-28T13:11:49.929Z,60.97
2022-10-28T13:15:26.372Z,61.94
2022-10-28T13:18:49.388Z,65.07
2022-10-28T13:22:19.365Z,66.76
2022-10-28T13:25:55.375Z,66.01
2022-10-28T13:29:01.225Z,67.87
2022-10-28T13:32:05.399Z,70.05
2022-10-28T13:35:28.140Z,70.79
2022-10-28T13:38:31.225Z,73.23
2022-10-28T13:41:44.692Z,73.32
2022-10-28T13:44:55.713Z,74.87
2022-10-28T13:48:30.485Z,73.27
2022-10-28T13:51:33.950Z,75.26
2022-10-28T13:54:39.228Z,75.30
2022-10-28T13:57:50.222Z,74.70
2022-10-28T14:00:53.966Z,76.35
2022-10-28T14:03:57.174Z,74.97
2022-10-28T14:07:15.812Z,76.48
2022-10-28T14:10:30.814Z,77.27
2022-10-28T14:13:48.103Z,78.21
2022-10-28T14:16:51.110Z,79.07
2022-10-28T14:19:54.643Z,79.60
2022-10-28T14:22:58.206Z,79.66
2022-10-28T14:26:04.762Z,80.51
2022-10-28T14:29:23.993Z,80.49
2022-10-28T14:32:35.209Z,80.55
2022-10-28T14:35:42.995Z,79.50
2022-10-28T14:38:52.537Z,79.80
2022-10-28T14:42:15.719Z,81.35
2022-10-28T14:45:39.829Z,82.15
2022-10-28T14:48:53.839Z,83.03
2022-10-28T14:51:58.247Z,83.48
2022-10-28T14:55:19.845Z,84.01
2022-10-28T14:58:24.682Z,84.38
2022-10-28T15:01:33.190Z,85.04
2022-10-28T15:04:35.944Z,85.25
2022-10-28T15:07:41.889Z,85.78
2022-10-28T15:10:49.476Z,85.81
2022-10-28T15:13:53.622Z,86.57
2022-10-28T15:16:57.035Z,87.14
2022-10-28T15:20:00.964Z,87.96
2022-10-28T15:23:22.028Z,88.60
2022-10-28T15:26:25.065Z,88.99
2022-10-28T15:29:27.880Z,89.47
2022-10-28T15:32:33.334Z,90.24
2022-10-28T15:35:39.719Z,90.45
2022-10-28T15:38:47.344Z,91.04
2022-10-28T15:41:52.628Z,91.75
2022-10-28T15:44:57.028Z,91.34
2022-10-28T15:48:10.224Z,90.55
2022-10-28T15:51:18.225Z,90.48
2022-10-28T15:54:20.885Z,91.53
2022-10-28T15:57:28.921Z,91.30
2022-10-28T16:00:33.676Z,90.79
2022-10-28T16:03:47.297Z,90.43
2022-10-28T16:06:54.634Z,90.97
2022-10-28T16:09:58.083Z,90.85
2022-10-28T16:13:01.915Z,90.59
2022-10-28T16:16:09.738Z,90.65
2022-10-28T16:19:28.198Z,89.69
2022-10-28T16:22:34.500Z,89.88
2022-10-28T16:25:37.213Z,89.56
2022-10-28T16:28:45.002Z,89.96
2022-10-28T16:31:52.723Z,89.11
2022-10-28T16:35:00.103Z,89.74
2022-10-28T16:38:12.240Z,89.76
2022-10-28T16:41:17.818Z,89.47
2022-10-28T16:44:20.775Z,89.10
2022-10-28T16:47:29.495Z,89.10
2022-10-28T16:50:32.045Z,88.85
2022-10-28T16:53:36.450Z,88.49
2022-10-28T16:56:40.297Z,88.55
2022-10-28T16:59:43.519Z,89.21
2022-10-28T17:02:50.845Z,89.16
2022-10-28T17:05:54.015Z,88.74
2022-10-28T17:09:02.998Z,88.72
2022-10-28T17:12:07.098Z,88.73
2022-10-28T17:15:10.961Z,88.95
2022-10-28T17:18:15.626Z,88.34
2022-10-28T17:21:19.125Z,88.77
2022-10-28T17:24:22.684Z,88.69
2022-10-28T17:27:26.588Z,88.90
2022-10-28T17:30:30.666Z,89.23
2022-10-28T17:33:33.624Z,89.05
2022-10-28T17:36:36.932Z,88.97
2022-10-28T17:39:39.559Z,88.74
2022-10-28T17:42:42.534Z,89.17
2022-10-28T17:45:45.226Z,89.44
2022-10-28T17:48:49.702Z,89.29
2022-10-28T17:51:52.795Z,89.08
2022-10-28T17:54:56.152Z,89.13
2022-10-28T17:57:59.160Z,89.34
2022-10-28T18:01:07.929Z,89.11
2022-10-28T18:04:12.273Z,89.89
2022-10-28T18:07:15.525Z,89.31
2022-10-28T18:10:19.160Z,89.64
2022-10-28T18:13:30.580Z,88.86
2022-10-28T18:16:35.976Z,88.58
2022-10-28T18:19:40.152Z,89.06
2022-10-28T18:22:43.435Z,88.97
2022-10-28T18:25:46.430Z,88.88
2022-10-28T18:28:50.243Z,88.94
2022-10-28T18:31:53.178Z,89.13
2022-10-28T18:34:56.165Z,89.21
2022-10-28T18:38:01.563Z,88.71
2022-10-28T18:41:14.318Z,88.98
2022-10-28T18:44:20.713Z,88.83
2022-10-28T18:47:25.136Z,88.98
2022-10-28T18:50:28.246Z,88.98
2022-10-28T18:53:31.656Z,88.95
2022-10-28T18:56:34.591Z,89.34
2022-10-28T18:59:52.389Z,89.06
2022-10-28T19:03:00.405Z,89.57
2022-10-28T19:06:09.091Z,89.70
2022-10-28T19:09:13.936Z,89.66
2022-10-28T19:12:16.840Z,89.32
2022-10-28T19:15:19.924Z,89.73
2022-10-28T19:18:23.244Z,89.70
2022-10-28T19:21:27.167Z,89.61
2022-10-28T19:24:30.669Z,89.83
2022-10-28T19:27:34.227Z,90.07
2022-10-28T19:30:37.857Z,89.90
2022-10-28T19:33:42.215Z,89.62
2022-10-28T19:36:45.205Z,89.88
2022-10-28T19:39:47.932Z,90.03
2022-10-28T19:46:13.541Z,89.74
2022-10-28T19:49:16.497Z,89.78
2022-10-28T19:52:19.431Z,89.78
2022-10-28T19:55:22.708Z,89.81
2022-10-28T19:58:26.169Z,89.53
2022-10-28T20:01:32.439Z,89.34
2022-10-28T20:04:36.058Z,89.93
2022-10-28T20:07:38.754Z,89.83
2022-10-28T20:10:41.615Z,89.01
2022-10-28T20:13:45.894Z,88.94
2022-10-28T20:16:49.463Z,88.80
2022-10-28T20:19:52.035Z,88.24
2022-10-28T20:22:58.713Z,88.14
2022-10-28T20:26:02.801Z,88.12
2022-10-28T20:29:10.192Z,88.24
2022-10-28T20:32:12.890Z,88.63
2022-10-28T20:35:19.207Z,88.35
2022-10-28T20:38:24.707Z,88.00
2022-10-28T20:41:31.578Z,88.07
2022-10-28T20:44:34.465Z,88.73
2022-10-28T20:47:37.525Z,88.74
2022-10-28T20:50:49.563Z,89.35
2022-10-28T20:53:52.783Z,89.81
2022-10-28T20:56:55.292Z,90.06
2022-10-28T20:59:59.427Z,90.19
2022-10-28T21:03:02.431Z,89.59
2022-10-28T21:06:06.939Z,89.82
2022-10-28T21:09:09.692Z,89.44
2022-10-28T21:12:12.524Z,89.58
2022-10-28T21:15:15.196Z,90.77
2022-10-28T21:18:18.095Z,90.05
2022-10-28T21:21:22.502Z,89.27
2022-10-28T21:24:25.416Z,89.30
2022-10-28T21:27:28.994Z,89.21
2022-10-28T21:30:33.045Z,89.23
2022-10-28T21:33:36.835Z,89.23
2022-10-28T21:36:39.795Z,88.85
2022-10-28T21:39:42.380Z,89.60
2022-10-28T21:42:49.111Z,89.72
2022-10-28T21:45:52.286Z,89.74
2022-10-28T21:48:55.364Z,89.72
2022-10-28T21:51:57.900Z,89.70
2022-10-28T21:55:09.682Z,89.88
2022-10-28T21:58:22.912Z,90.32
2022-10-28T22:01:28.340Z,91.13
2022-10-28T22:04:32.359Z,90.15
2022-10-28T22:07:34.974Z,89.90
2022-10-28T22:10:37.822Z,89.78
2022-10-28T22:13:40.406Z,89.97
2022-10-28T22:16:43.417Z,89.37
2022-10-28T22:19:46.033Z,90.41
2022-10-28T22:22:48.935Z,90.62
2022-10-28T22:25:52.827Z,90.93
2022-10-28T22:28:56.582Z,91.22
2022-10-28T22:31:59.101Z,90.25
2022-10-28T22:35:02.127Z,90.49
2022-10-28T22:38:04.741Z,90.75
2022-10-28T22:41:16.234Z,90.97
2022-10-28T22:44:18.843Z,91.27
2022-10-28T22:47:21.745Z,91.03
2022-10-28T22:50:24.301Z,90.65
2022-10-28T22:53:27.484Z,90.89
2022-10-28T22:56:30.324Z,90.26
2022-10-28T22:59:33.161Z,89.58
2022-10-28T23:02:35.942Z,89.63
2022-10-28T23:05:39.994Z,89.18
2022-10-28T23:08:44.967Z,89.24
2022-10-28T23:11:47.799Z,89.37
2022-10-28T23:14:50.395Z,89.51
2022-10-28T23:17:56.227Z,89.17
2022-10-28T23:21:20.837Z,89.32
2022-10-28T23:24:25.669Z,89.03
2022-10-28T23:27:28.247Z,88.86
2022-10-28T23:30:31.180Z,88.66
2022-10-28T23:33:35.086Z,89.69
2022-10-28T23:36:37.968Z,89.75
2022-10-28T23:39:40.569Z,90.02
2022-10-28T23:42:43.797Z,90.10
2022-10-28T23:45:46.417Z,90.35
2022-10-28T23:48:49.264Z,89.83
2022-10-28T23:51:51.841Z,89.38
2022-10-28T23:54:55.275Z,89.86
2022-10-28T23:57:58.264Z,89.80
